createdAt,value
2023-02-15T00:01:26.573Z,35.03
2023-02-15T00:03:54.852Z,36.92
2023-02-15T00:06:23.173Z,37.42
2023-02-15T00:08:51.478Z,36.45
2023-02-15T00:11:40.377Z,34.72
2023-02-15T00:14:11.361Z,33.92
2023-02-15T00:16:40.178Z,31.38
2023-02-15T00:19:08.525Z,33.13
2023-02-15T00:21:37.663Z,35.03
2023-02-15T00:24:06.938Z,36.85
2023-02-15T00:26:35.505Z,34.22
2023-02-15T00:29:04.205Z,36.67
2023-02-15T00:31:34.790Z,32.30
2023-02-15T00:34:04.993Z,37.13
2023-02-15T00:36:33.303Z,33.58
2023-02-15T00:39:01.836Z,41.70
2023-02-15T00:41:30.206Z,35.72
2023-02-15T00:43:59.696Z,33.28
2023-02-15T00:46:27.961Z,40.00
2023-02-15T00:48:57.619Z,38.05
2023-02-15T00:51:26.112Z,35.92
2023-02-15T00:53:54.960Z,40.58
2023-02-15T00:56:23.611Z,40.65
2023-02-15T00:58:51.922Z,40.35
2023-02-15T01:01:21.524Z,39.83
2023-02-15T01:03:50.198Z,40.10
2023-02-15T01:06:20.405Z,39.83
2023-02-15T01:08:49.689Z,38.95
2023-02-15T01:11:22.714Z,41.33
2023-02-15T01:13:53.198Z,39.22
2023-02-15T01:16:21.777Z,43.40
2023-02-15T01:18:50.175Z,43.75
2023-02-15T01:21:21.297Z,44.58
2023-02-15T01:23:49.968Z,41.33
2023-02-15T01:26:18.879Z,36.60
2023-02-15T01:28:47.782Z,41.95
2023-02-15T01:31:17.089Z,42.08
2023-02-15T01:33:47.512Z,43.72
2023-02-15T01:36:19.798Z,44.53
2023-02-15T01:38:48.590Z,50.90
2023-02-15T01:41:23.950Z,41.10
2023-02-15T01:43:53.776Z,45.28
2023-02-15T01:46:24.744Z,38.83
2023-02-15T01:48:55.228Z,34.00
2023-02-15T01:51:30.259Z,39.80
2023-02-15T01:54:01.787Z,42.50
2023-02-15T01:56:31.377Z,40.67
2023-02-15T01:59:02.580Z,41.45
2023-02-15T02:01:31.063Z,39.17
2023-02-15T02:04:02.988Z,39.92
2023-02-15T02:06:34.438Z,40.38
2023-02-15T02:09:03.337Z,37.22
2023-02-15T02:11:32.730Z,42.15
2023-02-15T02:14:01.167Z,44.63
2023-02-15T02:16:33.295Z,45.13
2023-02-15T02:19:12.915Z,42.10
2023-02-15T02:21:53.150Z,36.75
2023-02-15T02:24:29.887Z,40.05
2023-02-15T02:27:13.872Z,40.20
2023-02-15T02:30:00.664Z,38.42
2023-02-15T02:32:37.891Z,39.65
2023-02-15T02:35:11.338Z,47.30
2023-02-15T02:37:43.453Z,39.38
2023-02-15T02:40:15.724Z,39.30
2023-02-15T02:42:44.433Z,40.70
2023-02-15T02:45:15.255Z,40.03
2023-02-15T02:47:46.570Z,39.40
2023-02-15T02:50:17.627Z,41.40
2023-02-15T02:52:46.764Z,36.15
2023-02-15T02:55:18.291Z,41.50
2023-02-15T02:57:50.859Z,43.60
2023-02-15T03:00:20.117Z,46.33
2023-02-15T03:02:50.264Z,42.75
2023-02-15T03:05:22.251Z,37.67
2023-02-15T03:07:52.496Z,43.08
2023-02-15T03:10:23.468Z,45.72
2023-02-15T03:12:53.109Z,45.08
2023-02-15T03:15:22.706Z,41.10
2023-02-15T03:17:52.842Z,44.10
2023-02-15T03:20:26.246Z,45.97
2023-02-15T03:22:57.161Z,46.22
2023-02-15T03:25:27.963Z,42.45
2023-02-15T03:27:57.474Z,46.05
2023-02-15T03:30:26.511Z,45.03
2023-02-15T03:32:57.813Z,45.25
2023-02-15T03:35:29.116Z,45.20
2023-02-15T03:38:00.354Z,46.38
2023-02-15T03:40:48.484Z,46.70
2023-02-15T03:43:19.642Z,45.58
2023-02-15T03:45:55.498Z,43.92
2023-02-15T03:48:25.751Z,41.60
2023-02-15T03:51:14.928Z,44.38
2023-02-15T03:53:44.854Z,46.80
2023-02-15T03:56:13.174Z,52.95
2023-02-15T03:58:59.135Z,51.88
2023-02-15T04:01:46.528Z,46.85
2023-02-15T04:04:18.044Z,45.33
2023-02-15T04:06:47.841Z,46.70
2023-02-15T04:09:34.162Z,50.03
2023-02-15T04:12:02.423Z,50.38
2023-02-15T04:14:48.232Z,43.47
2023-02-15T04:17:16.506Z,44.20
2023-02-15T04:20:02.709Z,46.50
2023-02-15T04:22:50.011Z,41.03
2023-02-15T04:25:18.461Z,47.53
2023-02-15T04:27:47.647Z,46.60
2023-02-15T04:30:16.959Z,47.35
2023-02-15T04:32:45.335Z,46.63
2023-02-15T04:35:13.785Z,48.25
2023-02-15T04:37:43.687Z,47.53
2023-02-15T04:40:13.270Z,45.55
2023-02-15T04:42:41.758Z,47.97
2023-02-15T04:45:10.151Z,45.05
2023-02-15T04:47:38.499Z,47.78
2023-02-15T04:50:07.407Z,46.70
2023-02-15T04:52:35.745Z,50.13
2023-02-15T04:55:05.907Z,48.85
2023-02-15T04:57:34.312Z,47.83
2023-02-15T05:00:02.732Z,45.38
2023-02-15T05:02:31.038Z,48.13
2023-02-15T05:04:59.312Z,51.22
2023-02-15T05:07:27.619Z,44.65
2023-02-15T05:09:55.904Z,47.28
2023-02-15T05:12:25.546Z,52.08
2023-02-15T05:14:54.137Z,51.97
2023-02-15T05:17:22.397Z,52.47
2023-02-15T05:19:50.701Z,51.05
2023-02-15T05:22:18.987Z,56.53
2023-02-15T05:25:04.872Z,54.47
2023-02-15T05:27:52.106Z,49.53
2023-02-15T05:30:20.665Z,46.60
2023-02-15T05:32:49.105Z,46.65
2023-02-15T05:35:18.068Z,51.08
2023-02-15T05:37:46.872Z,48.83
2023-02-15T05:40:15.146Z,46.38
2023-02-15T05:42:44.774Z,41.05
2023-02-15T05:45:13.109Z,52.70
2023-02-15T05:47:41.355Z,49.42
2023-02-15T05:50:10.177Z,47.55
2023-02-15T05:52:38.424Z,50.80
2023-02-15T05:55:07.308Z,44.85
2023-02-15T05:57:35.538Z,42.67
2023-02-15T06:00:05.823Z,46.80
2023-02-15T06:02:40.474Z,46.45
2023-02-15T06:05:09.126Z,49.92
2023-02-15T06:07:37.566Z,43.55
2023-02-15T06:10:06.456Z,39.97
2023-02-15T06:12:34.726Z,47.65
2023-02-15T06:15:04.589Z,45.45
2023-02-15T06:17:33.096Z,43.38
2023-02-15T06:20:01.401Z,46.40
2023-02-15T06:22:29.736Z,44.75
2023-02-15T06:24:57.992Z,44.55
2023-02-15T06:27:26.577Z,42.97
2023-02-15T06:29:54.916Z,43.58
2023-02-15T06:32:24.594Z,44.85
2023-02-15T06:34:53.386Z,40.97
2023-02-15T06:37:22.449Z,49.88
2023-02-15T06:39:51.107Z,43.13
2023-02-15T06:42:19.821Z,40.28
2023-02-15T06:44:48.287Z,43.78
2023-02-15T06:47:16.541Z,40.03
2023-02-15T06:49:46.269Z,45.33
2023-02-15T06:52:14.899Z,45.60
2023-02-15T06:54:43.242Z,41.03
2023-02-15T06:57:11.536Z,45.70
2023-02-15T06:59:39.816Z,41.83
2023-02-15T07:02:08.772Z,40.40
2023-02-15T07:04:37.138Z,40.65
2023-02-15T07:07:06.907Z,34.72
2023-02-15T07:09:35.213Z,40.22
2023-02-15T07:12:21.248Z,39.92
2023-02-15T07:14:49.561Z,43.35
2023-02-15T07:17:35.144Z,40.22
2023-02-15T07:20:04.468Z,40.83
2023-02-15T07:22:34.873Z,44.35
2023-02-15T07:25:03.241Z,35.00
2023-02-15T07:27:37.711Z,38.97
2023-02-15T07:30:10.364Z,40.05
2023-02-15T07:32:59.210Z,42.50
2023-02-15T07:35:27.600Z,41.75
2023-02-15T07:37:57.861Z,37.53
2023-02-15T07:40:26.139Z,36.65
2023-02-15T07:42:55.545Z,39.22
2023-02-15T07:45:24.275Z,35.03
2023-02-15T07:47:52.571Z,37.53
2023-02-15T07:50:20.948Z,37.67
2023-02-15T07:52:49.252Z,31.30
2023-02-15T07:55:19.487Z,35.05
2023-02-15T07:57:49.917Z,32.28
2023-02-15T08:00:21.810Z,32.58
2023-02-15T08:03:11.652Z,37.95
2023-02-15T08:05:43.919Z,29.35
2023-02-15T08:08:31.226Z,32.35
2023-02-15T08:11:20.339Z,28.17
2023-02-15T08:13:54.521Z,26.25
2023-02-15T08:16:24.597Z,29.60
2023-02-15T08:18:53.016Z,24.05
2023-02-15T08:21:24.427Z,27.80
2023-02-15T08:23:53.539Z,27.55
2023-02-15T08:26:23.175Z,29.85
2023-02-15T08:28:51.602Z,28.60
2023-02-15T08:31:20.316Z,23.35
2023-02-15T08:33:49.610Z,23.13
2023-02-15T08:36:19.337Z,25.13
2023-02-15T08:38:47.974Z,23.60
2023-02-15T08:41:17.358Z,23.50
2023-02-15T08:43:47.638Z,25.48
2023-02-15T08:46:17.172Z,25.20
2023-02-15T08:48:45.936Z,21.75
2023-02-15T08:51:15.188Z,22.77
2023-02-15T08:53:44.836Z,21.17
2023-02-15T08:56:13.601Z,24.38
2023-02-15T08:58:41.908Z,22.15
2023-02-15T09:01:18.662Z,19.13
2023-02-15T09:03:47.685Z,24.13
2023-02-15T09:06:16.103Z,24.33
2023-02-15T09:08:44.511Z,23.17
2023-02-15T09:11:13.658Z,20.95
2023-02-15T09:13:42.500Z,21.23
2023-02-15T09:16:11.763Z,20.98
2023-02-15T09:18:41.793Z,24.33
2023-02-15T09:21:11.394Z,24.30
2023-02-15T09:23:39.666Z,23.58
2023-02-15T09:26:09.458Z,26.63
2023-02-15T09:28:37.974Z,34.65
2023-02-15T09:31:10.467Z,25.77
2023-02-15T09:33:39.632Z,47.55
2023-02-15T09:36:17.676Z,31.33
2023-02-15T09:38:46.682Z,31.20
2023-02-15T09:41:26.159Z,21.13
2023-02-15T09:44:02.593Z,24.23
2023-02-15T09:46:37.494Z,23.40
2023-02-15T09:49:07.485Z,19.05
2023-02-15T09:51:45.809Z,21.00
2023-02-15T09:54:32.091Z,20.23
2023-02-15T09:57:02.879Z,17.70
2023-02-15T09:59:36.292Z,21.38
2023-02-15T10:02:15.174Z,23.02
2023-02-15T10:04:50.262Z,19.65
2023-02-15T10:07:27.804Z,17.00
2023-02-15T10:10:03.436Z,20.55
2023-02-15T10:12:37.459Z,17.85
2023-02-15T10:15:12.522Z,20.70
2023-02-15T10:17:47.745Z,21.23
2023-02-15T10:20:21.425Z,19.20
2023-02-15T10:22:59.962Z,20.10
2023-02-15T10:25:33.334Z,20.80
2023-02-15T10:28:05.343Z,18.33
2023-02-15T10:30:39.270Z,22.30
2023-02-15T10:33:16.962Z,22.15
2023-02-15T10:35:48.270Z,22.83
2023-02-15T10:38:22.503Z,23.92
2023-02-15T10:41:00.658Z,23.10
2023-02-15T10:43:38.949Z,25.83
2023-02-15T10:46:12.363Z,23.58
2023-02-15T10:48:57.890Z,26.55
2023-02-15T10:51:32.425Z,30.33
2023-02-15T10:54:18.999Z,29.70
2023-02-15T10:56:52.286Z,24.38
2023-02-15T10:59:29.438Z,25.08
2023-02-15T11:02:04.111Z,31.35
2023-02-15T11:04:42.476Z,24.98
2023-02-15T11:07:14.505Z,26.25
2023-02-15T11:09:46.985Z,26.20
2023-02-15T11:12:17.156Z,28.15
2023-02-15T11:14:47.282Z,32.78
2023-02-15T11:17:17.151Z,29.73
2023-02-15T11:19:49.673Z,28.35
2023-02-15T11:22:18.246Z,30.23
2023-02-15T11:24:48.895Z,32.05
2023-02-15T11:27:21.085Z,34.25
2023-02-15T11:29:54.754Z,32.22
2023-02-15T11:32:25.720Z,33.08
2023-02-15T11:34:56.021Z,32.83
2023-02-15T11:37:27.315Z,33.92
2023-02-15T11:39:57.696Z,37.95
2023-02-15T11:42:27.942Z,39.97
2023-02-15T11:45:02.044Z,36.67
2023-02-15T11:47:32.130Z,35.15
2023-02-15T11:50:00.616Z,37.53
2023-02-15T11:52:28.912Z,34.47
2023-02-15T11:54:58.598Z,31.17
2023-02-15T11:57:29.033Z,35.38
2023-02-15T12:00:01.301Z,37.88
2023-02-15T12:02:38.200Z,37.50
2023-02-15T12:05:09.675Z,39.13
2023-02-15T12:07:39.185Z,39.60
2023-02-15T12:10:19.028Z,38.65
2023-02-15T12:12:47.305Z,33.75
2023-02-15T12:15:16.149Z,38.67
2023-02-15T12:17:55.640Z,36.85
2023-02-15T12:20:30.772Z,36.85
2023-02-15T12:23:03.152Z,37.15
2023-02-15T12:25:38.159Z,39.60
2023-02-15T12:28:07.160Z,39.97
2023-02-15T12:30:37.919Z,45.33
2023-02-15T12:33:15.637Z,37.97
2023-02-15T12:35:50.191Z,38.38
2023-02-15T12:38:25.761Z,36.80
2023-02-15T12:41:01.706Z,43.05
2023-02-15T12:43:32.944Z,41.47
2023-02-15T12:46:22.501Z,42.97
2023-02-15T12:49:08.630Z,39.60
2023-02-15T12:51:47.043Z,42.78
2023-02-15T12:54:23.531Z,38.80
2023-02-15T12:56:53.634Z,48.70
2023-02-15T12:59:23.760Z,49.53
2023-02-15T13:01:54.598Z,44.42
2023-02-15T13:04:25.405Z,49.22
2023-02-15T13:06:55.018Z,52.13
2023-02-15T13:09:30.902Z,43.28
2023-02-15T13:12:11.454Z,51.67
2023-02-15T13:14:39.781Z,45.95
2023-02-15T13:17:08.974Z,52.40
2023-02-15T13:19:39.703Z,48.20
2023-02-15T13:22:10.633Z,48.60
2023-02-15T13:24:40.614Z,44.72
2023-02-15T13:27:15.960Z,46.75
2023-02-15T13:29:46.577Z,44.67
2023-02-15T13:32:18.000Z,46.88
2023-02-15T13:34:46.325Z,43.45
2023-02-15T13:37:17.932Z,43.92
2023-02-15T13:39:49.987Z,47.63
2023-02-15T13:42:24.098Z,61.35
2023-02-15T13:45:10.525Z,49.03
2023-02-15T13:47:46.107Z,47.08
2023-02-15T13:50:23.100Z,47.22
2023-02-15T13:52:55.056Z,43.63
2023-02-15T13:55:30.063Z,45.80
2023-02-15T13:58:09.289Z,46.85
2023-02-15T14:00:43.253Z,40.75
2023-02-15T14:03:32.597Z,42.65
2023-02-15T14:06:17.118Z,44.63
2023-02-15T14:08:55.383Z,41.35
2023-02-15T14:11:25.754Z,45.55
2023-02-15T14:14:01.296Z,52.30
2023-02-15T14:16:36.222Z,47.78
2023-02-15T14:19:08.831Z,47.33
2023-02-15T14:21:41.471Z,51.92
2023-02-15T14:24:17.700Z,69.57
2023-02-15T14:26:50.090Z,55.78
2023-02-15T14:29:23.100Z,49.53
2023-02-15T14:31:53.807Z,61.45
2023-02-15T14:34:25.024Z,60.45
2023-02-15T14:36:54.321Z,45.70
2023-02-15T14:39:46.376Z,46.13
2023-02-15T14:42:18.212Z,47.95
2023-02-15T14:44:51.633Z,44.00
2023-02-15T14:47:22.030Z,52.28
2023-02-15T14:49:50.302Z,58.92
2023-02-15T14:52:18.572Z,50.90
2023-02-15T14:55:00.438Z,45.08
2023-02-15T14:57:34.636Z,47.00
2023-02-15T15:00:08.207Z,48.92
2023-02-15T15:02:44.607Z,54.22
2023-02-15T15:05:19.213Z,51.05
2023-02-15T15:07:49.095Z,49.88
2023-02-15T15:10:32.378Z,51.40
2023-02-15T15:13:01.282Z,50.85
2023-02-15T15:15:39.616Z,52.33
2023-02-15T15:18:09.731Z,52.53
2023-02-15T15:20:46.353Z,48.47
2023-02-15T15:23:33.316Z,49.92
2023-02-15T15:26:21.957Z,53.22
2023-02-15T15:28:57.510Z,54.33
2023-02-15T15:31:29.518Z,54.17
2023-02-15T15:34:12.994Z,50.92
2023-02-15T15:36:59.222Z,53.10
2023-02-15T15:39:46.116Z,51.22
2023-02-15T15:42:15.225Z,56.15
2023-02-15T15:45:05.094Z,50.83
2023-02-15T15:47:56.087Z,57.35
2023-02-15T15:50:30.391Z,54.92
2023-02-15T15:53:00.591Z,55.90
2023-02-15T15:55:30.476Z,54.47
2023-02-15T15:57:59.656Z,54.35
2023-02-15T16:00:37.364Z,50.25
2023-02-15T16:03:07.416Z,52.28
2023-02-15T16:05:39.481Z,61.08
2023-02-15T16:08:07.788Z,96.68
2023-02-15T16:10:38.657Z,103.15
2023-02-15T16:13:08.099Z,57.08
2023-02-15T16:15:38.220Z,56.10
2023-02-15T16:18:08.046Z,65.43
2023-02-15T16:20:37.753Z,54.72
2023-02-15T16:23:12.858Z,56.38
2023-02-15T16:25:45.267Z,51.78
2023-02-15T16:28:14.153Z,56.70
2023-02-15T16:30:43.565Z,63.97
2023-02-15T16:33:14.445Z,59.88
2023-02-15T16:35:43.956Z,58.45
2023-02-15T16:38:13.008Z,63.67
2023-02-15T16:40:43.926Z,62.08
2023-02-15T16:43:18.604Z,65.10
2023-02-15T16:45:50.958Z,61.90
2023-02-15T16:48:23.631Z,62.45
2023-02-15T16:50:55.502Z,60.55
2023-02-15T16:53:27.302Z,60.67
2023-02-15T16:55:57.925Z,58.40
2023-02-15T16:58:31.377Z,64.53
2023-02-15T17:01:01.280Z,61.13
2023-02-15T17:03:33.131Z,60.13
2023-02-15T17:06:02.559Z,70.35
2023-02-15T17:08:38.592Z,60.97
2023-02-15T17:11:18.722Z,63.65
2023-02-15T17:14:06.458Z,62.65
2023-02-15T17:16:36.044Z,72.35
2023-02-15T17:19:18.056Z,63.03
2023-02-15T17:21:50.683Z,63.05
2023-02-15T17:24:23.689Z,68.00
2023-02-15T17:26:53.025Z,65.68
2023-02-15T17:29:25.060Z,71.75
2023-02-15T17:31:54.199Z,64.80
2023-02-15T17:34:43.698Z,68.43
2023-02-15T17:37:14.929Z,64.07
2023-02-15T17:39:44.498Z,63.85
2023-02-15T17:42:12.791Z,65.85
2023-02-15T17:44:43.773Z,71.47
2023-02-15T17:47:16.615Z,65.30
2023-02-15T17:49:45.708Z,72.85
2023-02-15T17:52:15.925Z,70.72
2023-02-15T17:55:02.351Z,74.38
2023-02-15T17:57:31.057Z,67.55
2023-02-15T18:00:20.691Z,69.38
2023-02-15T18:03:07.290Z,75.40
2023-02-15T18:05:53.575Z,65.80
2023-02-15T18:08:43.532Z,67.97
2023-02-15T18:11:30.420Z,70.35
2023-02-15T18:14:01.550Z,75.95
2023-02-15T18:16:37.604Z,69.97
2023-02-15T18:19:12.232Z,74.32
2023-02-15T18:21:40.625Z,74.85
2023-02-15T18:24:15.726Z,67.95
2023-02-15T18:26:46.629Z,71.47
2023-02-15T18:29:18.092Z,71.55
2023-02-15T18:31:49.961Z,72.05
2023-02-15T18:34:26.819Z,69.32
2023-02-15T18:36:55.572Z,67.85
2023-02-15T18:39:32.907Z,72.65
2023-02-15T18:42:04.407Z,67.88
2023-02-15T18:44:41.054Z,68.88
2023-02-15T18:47:12.523Z,69.60
2023-02-15T18:49:44.496Z,70.05
2023-02-15T18:52:16.364Z,69.10
2023-02-15T18:54:46.435Z,61.70
2023-02-15T18:57:15.654Z,74.60
2023-02-15T18:59:46.243Z,70.55
2023-02-15T19:02:18.440Z,59.40
2023-02-15T19:04:47.711Z,64.97
2023-02-15T19:07:21.648Z,70.15
2023-02-15T19:09:54.825Z,65.93
2023-02-15T19:12:26.934Z,67.93
2023-02-15T19:14:57.150Z,67.00
2023-02-15T19:17:26.014Z,67.70
2023-02-15T19:19:55.969Z,68.30
2023-02-15T19:22:29.237Z,66.43
2023-02-15T19:25:03.913Z,80.45
2023-02-15T19:27:33.575Z,87.93
2023-02-15T19:30:04.412Z,70.18
2023-02-15T19:32:33.356Z,79.43
2023-02-15T19:35:03.130Z,66.70
2023-02-15T19:37:37.936Z,67.95
2023-02-15T19:40:09.797Z,55.75
2023-02-15T19:42:38.213Z,66.63
2023-02-15T19:45:17.436Z,60.05
2023-02-15T19:47:48.044Z,63.50
2023-02-15T19:50:21.411Z,55.15
2023-02-15T19:52:50.042Z,63.67
2023-02-15T19:55:22.906Z,65.18
2023-02-15T19:57:52.515Z,67.03
2023-02-15T20:00:26.188Z,59.60
2023-02-15T20:02:55.503Z,60.20
2023-02-15T20:05:24.462Z,54.50
2023-02-15T20:07:55.442Z,58.97
2023-02-15T20:10:26.163Z,61.08
2023-02-15T20:12:54.975Z,56.55
2023-02-15T20:15:24.449Z,62.85
2023-02-15T20:17:53.372Z,58.50
2023-02-15T20:20:22.542Z,60.95
2023-02-15T20:22:52.797Z,58.08
2023-02-15T20:25:22.714Z,59.78
2023-02-15T20:27:52.433Z,64.35
2023-02-15T20:30:22.184Z,60.28
2023-02-15T20:32:53.077Z,60.63
2023-02-15T20:35:22.530Z,58.35
2023-02-15T20:37:54.073Z,67.47
2023-02-15T20:40:24.086Z,62.25
2023-02-15T20:42:56.498Z,63.20
2023-02-15T20:45:25.409Z,61.00
2023-02-15T20:47:56.188Z,62.70
2023-02-15T20:50:25.758Z,70.78
2023-02-15T20:52:54.700Z,64.97
2023-02-15T20:55:24.515Z,65.22
2023-02-15T20:57:54.494Z,65.68
2023-02-15T21:00:24.863Z,71.13
2023-02-15T21:02:57.598Z,74.18
2023-02-15T21:05:27.084Z,65.25
2023-02-15T21:07:55.959Z,66.90
2023-02-15T21:10:25.898Z,67.65
2023-02-15T21:12:56.321Z,70.25
2023-02-15T21:15:30.091Z,76.57
2023-02-15T21:17:59.156Z,66.90
2023-02-15T21:20:28.203Z,67.03
2023-02-15T21:22:57.141Z,59.88
2023-02-15T21:25:27.792Z,76.35
2023-02-15T21:27:57.591Z,71.72
2023-02-15T21:30:26.491Z,67.03
2023-02-15T21:32:54.905Z,72.35
2023-02-15T21:35:23.684Z,65.72
2023-02-15T21:37:53.143Z,59.88
2023-02-15T21:40:23.610Z,62.72
2023-02-15T21:43:09.479Z,71.22
2023-02-15T21:45:57.310Z,64.70
2023-02-15T21:48:25.695Z,69.68
2023-02-15T21:51:12.253Z,68.80
2023-02-15T21:53:42.510Z,68.32
2023-02-15T21:56:12.081Z,68.25
2023-02-15T21:58:40.438Z,72.03
2023-02-15T22:01:18.694Z,69.07
2023-02-15T22:03:51.749Z,66.65
2023-02-15T22:06:24.385Z,70.72
2023-02-15T22:09:02.137Z,69.32
2023-02-15T22:11:32.011Z,66.22
2023-02-15T22:14:00.418Z,66.75
2023-02-15T22:16:31.972Z,78.72
2023-02-15T22:19:00.363Z,71.25
2023-02-15T22:21:31.323Z,72.85
2023-02-15T22:23:59.671Z,64.10
2023-02-15T22:26:28.331Z,61.05
2023-02-15T22:28:58.529Z,68.15
2023-02-15T22:31:26.978Z,62.97
2023-02-15T22:33:56.720Z,60.40
2023-02-15T22:36:25.827Z,66.50
2023-02-15T22:38:54.312Z,69.05
2023-02-15T22:41:24.149Z,62.22
2023-02-15T22:43:52.952Z,65.90
2023-02-15T22:46:22.444Z,65.72
2023-02-15T22:48:51.522Z,66.43
2023-02-15T22:51:22.058Z,70.47
2023-02-15T22:53:52.099Z,148.25
2023-02-15T22:56:22.273Z,85.18
2023-02-15T22:58:50.692Z,67.43
2023-02-15T23:01:23.703Z,73.32
2023-02-15T23:03:52.051Z,75.10
2023-02-15T23:06:21.722Z,67.38
2023-02-15T23:08:49.946Z,64.22
2023-02-15T23:11:18.528Z,68.55
2023-02-15T23:13:48.857Z,69.38
2023-02-15T23:16:17.839Z,69.25
2023-02-15T23:18:46.987Z,72.22
2023-02-15T23:21:19.798Z,72.68
2023-02-15T23:23:50.868Z,71.60
2023-02-15T23:26:20.295Z,72.53
2023-02-15T23:28:48.874Z,70.13
2023-02-15T23:31:19.511Z,72.30
2023-02-15T23:33:48.324Z,63.10
2023-02-15T23:36:26.030Z,72.97
2023-02-15T23:38:55.978Z,73.90
2023-02-15T23:41:24.639Z,69.00
2023-02-15T23:43:55.381Z,68.68
2023-02-15T23:46:25.280Z,77.30
2023-02-15T23:48:53.971Z,68.68
2023-02-15T23:51:23.971Z,62.88
2023-02-15T23:53:52.247Z,67.90
2023-02-15T23:56:21.833Z,66.32
2023-02-15T23:58:50.214Z,69.18
